Terminal Aerodrome Forecast
Issued by NWS St Louis, MO

Home | Current Version | Previous Version | Text Only | Print | Product List | Glossary On
Versions: 1 2 3 4 5 6 7 8 9 10 11 12 13 14 15 16 17 18 19 20 21
216
FTUS43 KLSX 031514 AAA
TAFSTL
TAF AMD
KSTL 031514Z 0315/0418 31008KT P6SM BKN040
     FM040200 24010KT P6SM SCT050
     FM041400 32012KT P6SM SCT250=

USA.gov is the U.S. government's official web portal to all federal, state and local government web resources and services.